createdAt,value
2023-03-15T00:01:04.940Z,0.43
2023-03-15T00:03:37.172Z,0.40
2023-03-15T00:06:06.998Z,0.50
2023-03-15T00:08:35.117Z,0.47
2023-03-15T00:11:03.448Z,0.50
2023-03-15T00:13:32.645Z,0.50
2023-03-15T00:16:03.173Z,0.55
2023-03-15T00:18:31.447Z,0.50
2023-03-15T00:20:59.646Z,0.50
2023-03-15T00:23:28.764Z,0.50
2023-03-15T00:25:56.639Z,0.43
2023-03-15T00:28:24.442Z,0.50
2023-03-15T00:31:03.200Z,0.40
2023-03-15T00:33:34.572Z,0.60
2023-03-15T00:36:05.958Z,0.60
2023-03-15T00:38:35.355Z,0.40
2023-03-15T00:41:06.820Z,0.57
2023-03-15T00:43:34.909Z,0.57
2023-03-15T00:46:03.029Z,0.50
2023-03-15T00:48:31.092Z,0.60
2023-03-15T00:51:10.817Z,0.75
2023-03-15T00:53:41.973Z,0.60
2023-03-15T00:56:11.658Z,0.45
2023-03-15T00:58:40.146Z,0.40
2023-03-15T01:01:09.197Z,0.50
2023-03-15T01:03:37.247Z,0.50
2023-03-15T01:06:09.657Z,0.60
2023-03-15T01:08:37.484Z,0.40
2023-03-15T01:11:08.717Z,0.57
2023-03-15T01:13:37.251Z,1.45
2023-03-15T01:16:06.310Z,0.52
2023-03-15T01:18:34.316Z,0.50
2023-03-15T01:21:02.687Z,0.50
2023-03-15T01:23:30.480Z,1.13
2023-03-15T01:26:01.354Z,0.40
2023-03-15T01:28:31.031Z,0.40
2023-03-15T01:31:00.069Z,0.70
2023-03-15T01:33:28.301Z,0.55
2023-03-15T01:36:00.841Z,0.30
2023-03-15T01:38:29.322Z,0.40
2023-03-15T01:40:57.338Z,1.35
2023-03-15T01:43:26.742Z,0.55
2023-03-15T01:46:02.824Z,0.43
2023-03-15T01:48:34.819Z,0.47
2023-03-15T01:51:07.592Z,0.50
2023-03-15T01:53:36.805Z,0.40
2023-03-15T01:56:07.139Z,0.52
2023-03-15T01:58:36.981Z,0.40
2023-03-15T02:01:07.128Z,1.05
2023-03-15T02:03:38.441Z,0.40
2023-03-15T02:06:09.328Z,0.52
2023-03-15T02:08:40.731Z,0.50
2023-03-15T02:11:08.615Z,0.60
2023-03-15T02:13:37.341Z,0.80
2023-03-15T02:16:07.460Z,0.50
2023-03-15T02:18:36.597Z,0.50
2023-03-15T02:21:15.995Z,0.47
2023-03-15T02:23:44.836Z,0.40
2023-03-15T02:26:20.877Z,0.50
2023-03-15T02:28:51.469Z,0.60
2023-03-15T02:31:19.555Z,0.63
2023-03-15T02:33:49.887Z,0.70
2023-03-15T02:36:20.789Z,0.40
2023-03-15T02:38:49.600Z,0.50
2023-03-15T02:41:20.258Z,0.60
2023-03-15T02:43:53.169Z,0.50
2023-03-15T02:46:26.571Z,0.70
2023-03-15T02:48:55.616Z,0.40
2023-03-15T02:51:25.461Z,0.77
2023-03-15T02:53:53.296Z,0.80
2023-03-15T02:56:21.436Z,0.90
2023-03-15T02:58:49.273Z,0.50
2023-03-15T03:01:19.786Z,0.52
2023-03-15T03:03:48.636Z,0.50
2023-03-15T03:06:18.751Z,0.50
2023-03-15T03:08:47.212Z,0.50
2023-03-15T03:11:15.595Z,0.63
2023-03-15T03:13:44.050Z,0.52
2023-03-15T03:16:12.067Z,0.70
2023-03-15T03:18:42.185Z,0.65
2023-03-15T03:21:10.142Z,0.60
2023-03-15T03:23:38.277Z,0.60
2023-03-15T03:26:17.010Z,0.70
2023-03-15T03:28:46.431Z,0.40
2023-03-15T03:31:18.868Z,0.60
2023-03-15T03:33:48.070Z,0.95
2023-03-15T03:36:16.779Z,0.47
2023-03-15T03:38:46.201Z,0.40
2023-03-15T03:41:15.396Z,0.77
2023-03-15T03:43:43.288Z,0.60
2023-03-15T03:46:11.220Z,0.50
2023-03-15T03:48:39.055Z,0.70
2023-03-15T03:51:08.478Z,0.60
2023-03-15T03:53:36.339Z,0.70
2023-03-15T03:56:05.899Z,0.50
2023-03-15T03:58:33.872Z,0.50
2023-03-15T04:01:01.709Z,0.82
2023-03-15T04:03:29.515Z,0.70
2023-03-15T04:05:58.893Z,0.65
2023-03-15T04:08:28.295Z,0.70
2023-03-15T04:10:57.184Z,0.65
2023-03-15T04:13:25.633Z,0.50
2023-03-15T04:15:57.754Z,0.85
2023-03-15T04:18:26.120Z,0.65
2023-03-15T04:20:54.602Z,0.70
2023-03-15T04:23:24.258Z,0.60
2023-03-15T04:25:55.112Z,0.57
2023-03-15T04:28:23.719Z,0.70
2023-03-15T04:30:52.520Z,0.65
2023-03-15T04:33:24.446Z,0.60
2023-03-15T04:35:52.655Z,0.70
2023-03-15T04:38:26.824Z,0.60
2023-03-15T04:40:56.173Z,0.70
2023-03-15T04:43:24.600Z,0.60
2023-03-15T04:45:52.562Z,0.60
2023-03-15T04:48:20.368Z,0.90
2023-03-15T04:50:48.181Z,0.40
2023-03-15T04:53:16.005Z,0.45
2023-03-15T04:55:43.847Z,0.65
2023-03-15T04:58:12.957Z,0.75
2023-03-15T05:00:40.820Z,0.57
2023-03-15T05:03:08.663Z,0.50
2023-03-15T05:05:36.454Z,0.73
2023-03-15T05:08:04.441Z,0.70
2023-03-15T05:10:33.187Z,0.60
2023-03-15T05:13:01.057Z,0.40
2023-03-15T05:15:30.271Z,0.60
2023-03-15T05:17:58.215Z,0.50
2023-03-15T05:20:26.113Z,0.40
2023-03-15T05:22:54.168Z,0.60
2023-03-15T05:25:24.320Z,0.80
2023-03-15T05:27:52.812Z,0.80
2023-03-15T05:30:21.511Z,1.20
2023-03-15T05:32:52.481Z,0.50
2023-03-15T05:35:20.476Z,0.57
2023-03-15T05:37:48.386Z,0.55
2023-03-15T05:40:16.417Z,0.70
2023-03-15T05:42:44.183Z,0.57
2023-03-15T05:45:12.260Z,0.52
2023-03-15T05:47:40.481Z,0.70
2023-03-15T05:50:10.850Z,0.65
2023-03-15T05:52:38.658Z,0.70
2023-03-15T05:55:06.892Z,0.70
2023-03-15T05:57:34.708Z,0.55
2023-03-15T06:00:03.230Z,0.50
2023-03-15T06:02:31.149Z,0.57
2023-03-15T06:04:58.945Z,0.60
2023-03-15T06:07:28.151Z,0.60
2023-03-15T06:09:56.092Z,0.50
2023-03-15T06:12:23.906Z,0.50
2023-03-15T06:14:51.700Z,0.60
2023-03-15T06:17:19.542Z,0.60
2023-03-15T06:19:48.644Z,0.82
2023-03-15T06:22:19.958Z,0.70
2023-03-15T06:24:49.164Z,0.80
2023-03-15T06:27:21.799Z,0.70
2023-03-15T06:29:50.191Z,0.50
2023-03-15T06:32:18.210Z,0.68
2023-03-15T06:34:46.143Z,0.80
2023-03-15T06:37:16.301Z,0.60
2023-03-15T06:39:46.211Z,0.68
2023-03-15T06:42:16.461Z,0.95
2023-03-15T06:44:44.480Z,0.50
2023-03-15T06:47:13.065Z,1.10
2023-03-15T06:49:40.964Z,1.10
2023-03-15T06:52:09.320Z,3.17
2023-03-15T06:54:38.017Z,1.35
2023-03-15T06:57:05.907Z,1.00
2023-03-15T06:59:35.280Z,1.60
2023-03-15T07:02:03.198Z,1.77
2023-03-15T07:04:31.191Z,1.08
2023-03-15T07:06:58.992Z,0.80
2023-03-15T07:09:27.126Z,0.82
2023-03-15T07:11:54.896Z,1.10
2023-03-15T07:14:22.920Z,0.75
2023-03-15T07:16:52.129Z,0.70
2023-03-15T07:19:19.961Z,0.95
2023-03-15T07:21:47.807Z,1.42
2023-03-15T07:24:15.674Z,1.65
2023-03-15T07:26:43.505Z,0.82
2023-03-15T07:29:11.675Z,0.90
2023-03-15T07:31:39.542Z,0.93
2023-03-15T07:34:08.685Z,1.02
2023-03-15T07:36:36.641Z,1.00
2023-03-15T07:39:04.923Z,1.02
2023-03-15T07:41:35.482Z,1.25
2023-03-15T07:44:03.280Z,0.82
2023-03-15T07:46:31.203Z,1.33
2023-03-15T07:48:59.003Z,0.77
2023-03-15T07:51:28.110Z,0.93
2023-03-15T07:53:55.945Z,0.93
2023-03-15T07:56:23.744Z,1.00
2023-03-15T07:58:51.560Z,0.63
2023-03-15T08:01:19.350Z,0.68
2023-03-15T08:03:47.630Z,0.57
2023-03-15T08:06:15.577Z,0.98
2023-03-15T08:08:44.775Z,0.60
2023-03-15T08:11:12.564Z,0.85
2023-03-15T08:13:41.723Z,0.85
2023-03-15T08:16:09.717Z,0.70
2023-03-15T08:18:37.543Z,0.77
2023-03-15T08:21:05.591Z,0.90
2023-03-15T08:23:33.388Z,0.80
2023-03-15T08:26:02.579Z,1.00
2023-03-15T08:28:30.849Z,0.90
2023-03-15T08:30:58.759Z,0.70
2023-03-15T08:33:30.066Z,0.70
2023-03-15T08:35:57.955Z,1.30
2023-03-15T08:38:26.108Z,0.57
2023-03-15T08:40:57.349Z,0.70
2023-03-15T08:43:26.541Z,0.95
2023-03-15T08:46:01.248Z,1.08
2023-03-15T08:48:57.085Z,0.60
2023-03-15T08:51:25.480Z,0.90
2023-03-15T08:53:53.361Z,0.90
2023-03-15T08:56:21.255Z,0.88
2023-03-15T08:58:50.829Z,1.10
2023-03-15T09:01:18.642Z,0.60
2023-03-15T09:03:46.430Z,0.70
2023-03-15T09:06:14.334Z,0.82
2023-03-15T09:08:42.402Z,0.85
2023-03-15T09:11:10.452Z,0.98
2023-03-15T09:13:38.304Z,0.85
2023-03-15T09:16:07.929Z,0.77
2023-03-15T09:18:35.720Z,0.95
2023-03-15T09:21:03.554Z,0.60
2023-03-15T09:23:31.449Z,0.82
2023-03-15T09:25:59.328Z,0.70
2023-03-15T09:28:27.229Z,0.60
2023-03-15T09:30:55.260Z,1.38
2023-03-15T09:33:24.428Z,0.80
2023-03-15T09:35:52.651Z,0.57
2023-03-15T09:38:22.044Z,0.52
2023-03-15T09:40:49.865Z,0.60
2023-03-15T09:43:47.499Z,0.52
2023-03-15T09:46:27.671Z,0.40
2023-03-15T09:49:02.592Z,0.60
2023-03-15T09:51:37.559Z,0.50
2023-03-15T09:54:09.440Z,0.50
2023-03-15T09:56:41.248Z,0.50
2023-03-15T09:59:11.570Z,0.50
2023-03-15T10:01:41.829Z,0.40
2023-03-15T10:04:15.174Z,0.40
2023-03-15T10:06:48.405Z,0.50
2023-03-15T10:09:21.728Z,0.50
2023-03-15T10:12:03.249Z,0.40
2023-03-15T10:14:58.929Z,0.40
2023-03-15T10:17:37.199Z,0.63
2023-03-15T10:20:12.023Z,0.50
2023-03-15T10:22:45.858Z,0.50
2023-03-15T10:25:18.826Z,0.40
2023-03-15T10:27:50.787Z,0.40
2023-03-15T10:30:21.583Z,0.40
2023-03-15T10:32:55.451Z,0.40
2023-03-15T10:35:24.691Z,0.70
2023-03-15T10:37:52.512Z,0.50
2023-03-15T10:40:42.242Z,0.40
2023-03-15T10:43:20.890Z,0.60
2023-03-15T10:46:00.388Z,0.40
2023-03-15T10:48:28.956Z,0.47
2023-03-15T10:51:01.860Z,0.40
2023-03-15T10:53:29.668Z,0.50
2023-03-15T10:56:03.041Z,0.60
2023-03-15T10:58:41.493Z,0.40
2023-03-15T11:01:27.875Z,0.40
2023-03-15T11:04:10.882Z,0.40
2023-03-15T11:06:43.817Z,0.30
2023-03-15T11:09:14.474Z,0.40
2023-03-15T11:12:00.720Z,0.40
2023-03-15T11:14:34.774Z,0.40
2023-03-15T11:17:05.334Z,0.30
2023-03-15T11:19:36.913Z,0.30
2023-03-15T11:22:06.113Z,0.40
2023-03-15T11:24:35.078Z,0.30
2023-03-15T11:27:10.221Z,0.30
2023-03-15T11:29:39.492Z,0.45
2023-03-15T11:32:14.998Z,0.38
2023-03-15T11:34:47.690Z,0.30
2023-03-15T11:37:21.810Z,0.43
2023-03-15T11:40:08.791Z,0.40
2023-03-15T11:42:44.714Z,0.40
2023-03-15T11:45:18.829Z,0.30
2023-03-15T11:47:51.519Z,0.30
2023-03-15T11:50:22.383Z,0.40
2023-03-15T11:52:52.949Z,0.30
2023-03-15T11:55:25.100Z,0.30
2023-03-15T11:57:53.352Z,0.30
2023-03-15T12:00:51.169Z,0.30
2023-03-15T12:03:40.360Z,0.30
2023-03-15T12:06:14.750Z,0.40
2023-03-15T12:08:50.615Z,0.40
2023-03-15T12:11:38.469Z,0.35
2023-03-15T12:14:22.459Z,0.60
2023-03-15T12:16:50.529Z,0.30
2023-03-15T12:19:20.157Z,0.30
2023-03-15T12:21:50.964Z,0.35
2023-03-15T12:24:24.920Z,0.40
2023-03-15T12:27:02.090Z,0.30
2023-03-15T12:29:32.384Z,0.30
2023-03-15T12:32:07.769Z,0.40
2023-03-15T12:34:43.741Z,0.50
2023-03-15T12:37:17.197Z,0.40
2023-03-15T12:39:50.510Z,0.40
2023-03-15T12:43:07.232Z,0.40
2023-03-15T12:45:49.365Z,0.52
2023-03-15T12:48:25.844Z,1.00
2023-03-15T12:51:14.433Z,0.40
2023-03-15T12:53:48.666Z,0.30
2023-03-15T12:56:50.510Z,0.30
2023-03-15T12:59:26.057Z,0.30
2023-03-15T13:01:54.101Z,0.60
2023-03-15T13:04:22.787Z,0.35
2023-03-15T13:07:11.883Z,0.30
2023-03-15T13:09:58.356Z,0.30
2023-03-15T13:12:33.681Z,0.40
2023-03-15T13:15:07.385Z,0.60
2023-03-15T13:17:42.596Z,0.40
2023-03-15T13:20:41.281Z,0.30
2023-03-15T13:23:16.620Z,0.40
2023-03-15T13:25:55.417Z,0.60
2023-03-15T13:28:26.143Z,0.60
2023-03-15T13:30:55.336Z,0.40
2023-03-15T13:33:26.524Z,0.40
2023-03-15T13:36:00.928Z,0.30
2023-03-15T13:38:31.791Z,0.38
2023-03-15T13:41:01.834Z,0.30
2023-03-15T13:43:33.941Z,0.35
2023-03-15T13:46:02.477Z,0.40
2023-03-15T13:48:31.961Z,0.40
2023-03-15T13:51:06.113Z,0.50
2023-03-15T13:53:48.911Z,0.57
2023-03-15T13:56:19.699Z,0.40
2023-03-15T13:58:50.420Z,0.38
2023-03-15T14:01:18.915Z,0.40
2023-03-15T14:03:53.970Z,0.40
2023-03-15T14:06:24.647Z,0.30
2023-03-15T14:08:55.610Z,0.40
2023-03-15T14:11:38.324Z,0.30
2023-03-15T14:14:24.063Z,0.50
2023-03-15T14:17:04.757Z,0.50
2023-03-15T14:19:36.762Z,0.30
2023-03-15T14:22:15.296Z,0.35
2023-03-15T14:24:45.291Z,0.40
2023-03-15T14:27:17.472Z,0.40
2023-03-15T14:29:50.678Z,0.40
2023-03-15T14:32:27.813Z,0.47
2023-03-15T14:35:03.274Z,0.40
2023-03-15T14:37:36.537Z,0.40
2023-03-15T14:40:17.560Z,0.50
2023-03-15T14:42:45.902Z,0.40
2023-03-15T14:45:16.052Z,0.40
2023-03-15T14:47:56.035Z,0.57
2023-03-15T14:50:26.811Z,0.30
2023-03-15T14:52:55.416Z,0.40
2023-03-15T14:55:28.449Z,0.30
2023-03-15T14:57:56.270Z,0.30
2023-03-15T15:00:26.055Z,0.40
2023-03-15T15:02:56.036Z,0.30
2023-03-15T15:05:26.243Z,0.50
2023-03-15T15:07:57.608Z,0.30
2023-03-15T15:10:26.657Z,0.60
2023-03-15T15:13:05.603Z,0.40
2023-03-15T15:15:51.818Z,0.38
2023-03-15T15:18:23.008Z,0.40
2023-03-15T15:20:54.103Z,1.02
2023-03-15T15:23:24.579Z,0.30
2023-03-15T15:25:55.141Z,0.30
2023-03-15T15:28:33.808Z,0.40
2023-03-15T15:31:03.700Z,0.30
2023-03-15T15:33:32.025Z,0.40
2023-03-15T15:35:59.881Z,0.50
2023-03-15T15:38:33.113Z,0.30
2023-03-15T15:41:01.118Z,0.50
2023-03-15T15:43:28.982Z,0.45
2023-03-15T15:45:56.898Z,0.40
2023-03-15T15:48:26.122Z,0.40
2023-03-15T15:50:54.035Z,0.50
2023-03-15T15:53:22.059Z,0.70
2023-03-15T15:55:49.906Z,0.38
2023-03-15T15:58:17.871Z,0.30
2023-03-15T16:00:45.724Z,0.40
2023-03-15T16:03:15.776Z,0.30
2023-03-15T16:05:45.221Z,0.60
2023-03-15T16:08:21.045Z,0.30
2023-03-15T16:10:48.969Z,0.95
2023-03-15T16:13:17.056Z,0.30
2023-03-15T16:15:44.986Z,0.40
2023-03-15T16:18:13.461Z,0.40
2023-03-15T16:20:42.163Z,0.30
2023-03-15T16:23:17.417Z,0.30
2023-03-15T16:25:48.014Z,0.65
2023-03-15T16:28:15.853Z,0.38
2023-03-15T16:30:46.373Z,0.30
2023-03-15T16:33:16.209Z,0.45
2023-03-15T16:35:44.933Z,0.40
2023-03-15T16:38:16.905Z,0.30
2023-03-15T16:40:46.711Z,0.40
2023-03-15T16:43:15.480Z,0.40
2023-03-15T16:45:43.449Z,0.82
2023-03-15T16:48:11.933Z,0.40
2023-03-15T16:50:40.844Z,0.80
2023-03-15T16:53:10.307Z,0.50
2023-03-15T16:55:39.852Z,0.40
2023-03-15T16:58:18.890Z,0.95
2023-03-15T17:00:48.259Z,0.52
2023-03-15T17:03:17.342Z,0.77
2023-03-15T17:05:47.445Z,0.98
2023-03-15T17:08:19.460Z,0.70
2023-03-15T17:10:49.248Z,1.08
2023-03-15T17:13:21.918Z,1.20
2023-03-15T17:15:49.834Z,0.60
2023-03-15T17:18:19.430Z,0.40
2023-03-15T17:20:49.399Z,0.80
2023-03-15T17:23:20.798Z,0.65
2023-03-15T17:25:50.630Z,0.65
2023-03-15T17:28:18.677Z,0.50
2023-03-15T17:30:46.504Z,0.30
2023-03-15T17:33:14.426Z,0.65
2023-03-15T17:35:45.135Z,0.65
2023-03-15T17:38:18.394Z,0.45
2023-03-15T17:40:46.551Z,0.52
2023-03-15T17:43:17.289Z,0.57
2023-03-15T17:45:45.610Z,0.60
2023-03-15T17:48:13.535Z,0.60
2023-03-15T17:50:44.142Z,0.82
2023-03-15T17:53:16.345Z,0.85
2023-03-15T17:55:44.210Z,0.70
2023-03-15T17:58:13.698Z,0.88
2023-03-15T18:00:43.710Z,0.85
2023-03-15T18:03:14.371Z,0.75
2023-03-15T18:05:42.271Z,0.68
2023-03-15T18:08:12.203Z,0.70
2023-03-15T18:10:41.966Z,0.70
2023-03-15T18:13:12.849Z,0.90
2023-03-15T18:15:41.972Z,0.98
2023-03-15T18:18:10.174Z,0.80
2023-03-15T18:20:38.269Z,0.47
2023-03-15T18:23:06.217Z,1.02
2023-03-15T18:25:35.964Z,0.57
2023-03-15T18:28:03.863Z,0.73
2023-03-15T18:30:32.691Z,0.70
2023-03-15T18:33:03.683Z,0.70
2023-03-15T18:35:34.404Z,0.80
2023-03-15T18:38:03.897Z,1.10
2023-03-15T18:40:33.339Z,1.33
2023-03-15T18:43:01.437Z,0.70
2023-03-15T18:45:31.016Z,0.90
2023-03-15T18:47:59.732Z,0.80
2023-03-15T18:50:29.277Z,1.75
2023-03-15T18:52:57.154Z,0.60
2023-03-15T18:55:25.235Z,0.57
2023-03-15T18:57:54.229Z,0.93
2023-03-15T19:00:26.076Z,0.70
2023-03-15T19:02:55.392Z,0.80
2023-03-15T19:05:23.345Z,0.70
2023-03-15T19:07:52.865Z,3.08
2023-03-15T19:10:22.000Z,3.25
2023-03-15T19:12:50.443Z,2.70
2023-03-15T19:15:19.703Z,2.58
2023-03-15T19:17:48.846Z,1.58
2023-03-15T19:20:21.559Z,2.00
2023-03-15T19:22:49.853Z,1.77
2023-03-15T19:25:19.601Z,2.45
2023-03-15T19:27:47.893Z,2.00
2023-03-15T19:30:20.713Z,1.48
2023-03-15T19:32:50.036Z,1.10
2023-03-15T19:35:19.238Z,1.17
2023-03-15T19:37:47.754Z,0.90
2023-03-15T19:40:16.749Z,0.90
2023-03-15T19:42:46.413Z,1.05
2023-03-15T19:45:15.278Z,0.60
2023-03-15T19:47:43.323Z,1.23
2023-03-15T19:50:14.573Z,0.73
2023-03-15T19:52:45.983Z,0.90
2023-03-15T19:55:14.405Z,1.10
2023-03-15T19:57:42.684Z,0.70
2023-03-15T20:00:15.929Z,1.13
2023-03-15T20:02:45.060Z,0.80
2023-03-15T20:05:15.217Z,0.82
2023-03-15T20:07:43.627Z,0.85
2023-03-15T20:10:13.606Z,0.85
2023-03-15T20:12:42.993Z,1.15
2023-03-15T20:15:14.698Z,0.85
2023-03-15T20:17:42.788Z,1.17
2023-03-15T20:20:13.520Z,0.90
2023-03-15T20:22:44.280Z,0.93
2023-03-15T20:25:13.577Z,1.25
2023-03-15T20:27:41.820Z,0.85
2023-03-15T20:30:14.936Z,0.60
2023-03-15T20:32:43.091Z,0.77
2023-03-15T20:35:11.980Z,0.60
2023-03-15T20:37:41.542Z,0.80
2023-03-15T20:40:12.556Z,1.30
2023-03-15T20:42:41.085Z,1.27
2023-03-15T20:45:10.500Z,1.10
2023-03-15T20:47:39.760Z,0.90
2023-03-15T20:50:09.213Z,1.10
2023-03-15T20:52:37.252Z,2.05
2023-03-15T20:55:07.783Z,1.05
2023-03-15T20:57:36.360Z,1.63
2023-03-15T21:00:12.179Z,1.45
2023-03-15T21:02:41.747Z,1.10
2023-03-15T21:05:12.956Z,1.00
2023-03-15T21:07:41.208Z,1.05
2023-03-15T21:10:11.170Z,0.60
2023-03-15T21:12:39.034Z,0.70
2023-03-15T21:15:08.223Z,1.05
2023-03-15T21:17:36.024Z,1.20
2023-03-15T21:20:07.655Z,1.20
2023-03-15T21:22:35.559Z,1.30
2023-03-15T21:25:03.522Z,0.90
2023-03-15T21:27:32.712Z,1.13
2023-03-15T21:30:01.202Z,2.47
2023-03-15T21:32:29.293Z,1.50
2023-03-15T21:34:57.137Z,1.40
2023-03-15T21:37:26.309Z,1.40
2023-03-15T21:39:54.415Z,1.60
2023-03-15T21:42:22.498Z,1.60
2023-03-15T21:44:50.462Z,1.70
2023-03-15T21:47:18.249Z,1.52
2023-03-15T21:49:46.081Z,0.85
2023-03-15T21:52:16.009Z,0.90
2023-03-15T21:54:45.679Z,0.70
2023-03-15T21:57:13.777Z,0.80
2023-03-15T21:59:41.836Z,0.70
2023-03-15T22:02:14.129Z,0.93
2023-03-15T22:04:42.654Z,1.20
2023-03-15T22:07:10.984Z,1.63
2023-03-15T22:09:40.211Z,0.80
2023-03-15T22:12:10.382Z,1.05
2023-03-15T22:14:38.345Z,0.80
2023-03-15T22:17:06.343Z,0.80
2023-03-15T22:19:34.290Z,0.60
2023-03-15T22:22:02.187Z,0.68
2023-03-15T22:24:30.056Z,1.05
2023-03-15T22:26:57.851Z,0.60
2023-03-15T22:29:27.180Z,0.50
2023-03-15T22:31:55.115Z,0.60
2023-03-15T22:34:27.468Z,0.70
2023-03-15T22:36:55.355Z,0.98
2023-03-15T22:39:23.179Z,0.80
2023-03-15T22:41:50.974Z,0.70
2023-03-15T22:44:19.356Z,0.60
2023-03-15T22:46:48.870Z,0.93
2023-03-15T22:49:17.938Z,0.77
2023-03-15T22:51:45.813Z,0.80
2023-03-15T22:54:13.621Z,0.88
2023-03-15T22:56:41.408Z,1.00
2023-03-15T22:59:09.272Z,0.80
2023-03-15T23:01:37.203Z,1.00
2023-03-15T23:04:06.499Z,0.82
2023-03-15T23:06:34.585Z,0.88
2023-03-15T23:09:03.909Z,0.90
2023-03-15T23:11:32.737Z,0.85
2023-03-15T23:14:00.609Z,0.90
2023-03-15T23:16:28.506Z,0.90
2023-03-15T23:18:56.342Z,1.08
2023-03-15T23:21:25.549Z,0.90
2023-03-15T23:23:53.331Z,1.05
2023-03-15T23:26:25.178Z,1.25
2023-03-15T23:28:53.354Z,0.60
2023-03-15T23:31:21.645Z,0.80
2023-03-15T23:33:49.534Z,0.70
2023-03-15T23:36:17.336Z,0.63
2023-03-15T23:38:46.536Z,1.10
2023-03-15T23:41:14.455Z,0.68
2023-03-15T23:43:42.360Z,0.70
2023-03-15T23:46:10.235Z,1.00
2023-03-15T23:48:38.137Z,0.93
2023-03-15T23:51:06.342Z,1.00
2023-03-15T23:53:34.191Z,1.00
2023-03-15T23:56:03.633Z,1.10
2023-03-15T23:58:31.517Z,1.40
